createdAt,value
2022-11-19T00:03:47.556Z,1.77
2022-11-19T00:07:54.110Z,1.25
2022-11-19T00:12:16.746Z,1.20
2022-11-19T00:16:20.537Z,1.20
2022-11-19T00:20:24.078Z,1.50
2022-11-19T00:24:29.427Z,1.40
2022-11-19T00:28:34.350Z,1.08
2022-11-19T00:32:37.770Z,0.90
2022-11-19T00:36:41.238Z,1.10
2022-11-19T00:40:45.037Z,0.93
2022-11-19T00:44:50.221Z,1.25
2022-11-19T00:48:55.779Z,1.02
2022-11-19T00:52:59.724Z,0.80
2022-11-19T00:57:03.517Z,0.50
2022-11-19T01:01:09.591Z,0.70
2022-11-19T01:05:13.349Z,0.93
2022-11-19T01:09:16.797Z,0.82
2022-11-19T01:13:38.969Z,1.00
2022-11-19T01:17:43.814Z,0.60
2022-11-19T01:21:47.427Z,1.10
2022-11-19T01:25:51.363Z,0.80
2022-11-19T01:29:54.830Z,0.60
2022-11-19T01:34:00.185Z,0.50
2022-11-19T01:38:04.415Z,0.93
2022-11-19T01:42:27.947Z,1.13
2022-11-19T01:46:34.101Z,0.63
2022-11-19T01:50:44.691Z,0.50
2022-11-19T01:54:53.773Z,0.93
2022-11-19T01:59:01.867Z,0.73
2022-11-19T02:03:05.427Z,0.75
2022-11-19T02:07:13.483Z,0.45
2022-11-19T02:11:45.293Z,0.50
2022-11-19T02:15:53.379Z,0.20
2022-11-19T02:20:35.157Z,0.40
2022-11-19T02:24:51.755Z,0.70
2022-11-19T02:29:05.751Z,0.65
2022-11-19T02:33:14.635Z,0.80
2022-11-19T02:37:25.543Z,0.77
2022-11-19T02:41:38.179Z,0.40
2022-11-19T02:45:45.705Z,0.60
2022-11-19T02:49:55.723Z,0.55
2022-11-19T02:53:59.913Z,0.75
2022-11-19T02:58:08.229Z,1.08
2022-11-19T03:02:32.389Z,0.85
2022-11-19T03:06:38.084Z,0.40
2022-11-19T03:11:00.458Z,0.88
2022-11-19T03:15:33.806Z,1.02
2022-11-19T03:19:41.597Z,0.70
2022-11-19T03:23:52.859Z,0.93
2022-11-19T03:28:01.533Z,1.13
2022-11-19T03:32:08.948Z,1.48
2022-11-19T03:36:16.325Z,1.02
2022-11-19T03:40:23.631Z,1.10
2022-11-19T03:44:34.918Z,1.02
2022-11-19T03:48:39.758Z,1.17
2022-11-19T03:52:44.945Z,1.30
2022-11-19T03:56:52.046Z,1.40
2022-11-19T04:00:55.854Z,1.02
2022-11-19T04:04:59.410Z,0.70
2022-11-19T04:09:02.507Z,1.40
2022-11-19T04:13:07.029Z,1.42
2022-11-19T04:17:10.917Z,1.90
2022-11-19T04:21:14.544Z,1.42
2022-11-19T04:25:18.372Z,1.30
2022-11-19T04:29:23.076Z,1.77
2022-11-19T04:33:26.411Z,3.28
2022-11-19T04:37:29.994Z,8.43
2022-11-19T04:41:33.150Z,6.82
2022-11-19T04:45:38.038Z,5.95
2022-11-19T04:49:41.079Z,6.80
2022-11-19T04:53:44.543Z,7.80
2022-11-19T04:57:50.225Z,6.45
2022-11-19T05:01:55.448Z,8.07
2022-11-19T05:05:59.580Z,6.38
2022-11-19T05:10:02.779Z,7.38
2022-11-19T05:14:06.125Z,6.55
2022-11-19T05:18:12.069Z,6.60
2022-11-19T05:22:15.669Z,7.10
2022-11-19T05:26:19.215Z,7.30
2022-11-19T05:30:27.432Z,5.68
2022-11-19T05:34:32.380Z,7.88
2022-11-19T05:38:38.225Z,7.35
2022-11-19T05:42:41.943Z,7.00
2022-11-19T05:46:45.831Z,6.63
2022-11-19T05:50:50.308Z,9.00
2022-11-19T05:54:53.994Z,8.38
2022-11-19T05:58:57.520Z,10.50
2022-11-19T06:03:01.194Z,16.77
2022-11-19T06:07:05.868Z,8.52
2022-11-19T06:11:29.405Z,8.63
2022-11-19T06:15:33.020Z,30.55
2022-11-19T06:19:36.689Z,11.70
2022-11-19T06:23:41.617Z,8.07
2022-11-19T06:27:45.197Z,8.43
2022-11-19T06:31:48.635Z,9.18
2022-11-19T06:35:53.764Z,9.68
2022-11-19T06:39:58.690Z,8.27
2022-11-19T06:44:02.293Z,9.88
2022-11-19T06:48:05.593Z,9.77
2022-11-19T06:52:08.973Z,10.32
2022-11-19T06:56:14.325Z,10.80
2022-11-19T07:00:18.957Z,8.38
2022-11-19T07:04:22.496Z,9.63
2022-11-19T07:08:25.606Z,9.90
2022-11-19T07:12:30.540Z,9.75
2022-11-19T07:16:36.430Z,9.93
2022-11-19T07:20:39.923Z,8.88
2022-11-19T07:24:43.356Z,9.38
2022-11-19T07:28:48.187Z,8.60
2022-11-19T07:32:51.664Z,10.57
2022-11-19T07:36:54.738Z,10.73
2022-11-19T07:40:58.437Z,9.20
2022-11-19T07:45:06.922Z,10.70
2022-11-19T07:49:10.068Z,9.57
2022-11-19T07:53:13.106Z,8.90
2022-11-19T07:57:16.421Z,10.45
2022-11-19T08:01:23.332Z,10.85
2022-11-19T08:05:26.747Z,9.05
2022-11-19T08:09:29.848Z,10.63
2022-11-19T08:13:33.166Z,11.10
2022-11-19T08:17:55.172Z,10.98
2022-11-19T08:21:58.386Z,10.33
2022-11-19T08:26:01.805Z,11.80
2022-11-19T08:30:05.475Z,11.82
2022-11-19T08:34:10.108Z,10.75
2022-11-19T08:38:13.522Z,10.45
2022-11-19T08:42:34.285Z,11.52
2022-11-19T08:46:38.882Z,11.02
2022-11-19T08:50:43.611Z,11.63
2022-11-19T08:54:46.830Z,10.52
2022-11-19T08:58:50.740Z,12.13
2022-11-19T09:02:54.350Z,11.55
2022-11-19T09:06:58.919Z,10.90
2022-11-19T09:11:23.107Z,11.55
2022-11-19T09:15:26.871Z,11.80
2022-11-19T09:19:30.382Z,9.77
2022-11-19T09:23:35.040Z,10.05
2022-11-19T09:27:38.564Z,11.52
2022-11-19T09:31:43.266Z,11.30
2022-11-19T09:35:46.708Z,9.07
2022-11-19T09:39:51.202Z,12.15
2022-11-19T09:44:05.564Z,11.68
2022-11-19T09:48:22.314Z,9.55
2022-11-19T09:52:27.589Z,10.30
2022-11-19T09:56:37.227Z,9.82
2022-11-19T10:00:40.907Z,12.45
2022-11-19T10:04:44.868Z,12.05
2022-11-19T10:09:00.310Z,12.77
2022-11-19T10:13:33.434Z,13.60
2022-11-19T10:17:45.338Z,10.70
2022-11-19T10:21:58.187Z,13.87
2022-11-19T10:26:07.287Z,9.68
2022-11-19T10:30:18.193Z,11.70
2022-11-19T10:34:27.862Z,10.52
2022-11-19T10:38:37.999Z,12.05
2022-11-19T10:42:45.014Z,11.65
2022-11-19T10:46:51.872Z,13.63
2022-11-19T10:50:57.647Z,9.88
2022-11-19T10:55:06.824Z,11.30
2022-11-19T10:59:14.035Z,12.43
2022-11-19T11:03:24.748Z,12.88
2022-11-19T11:07:50.470Z,13.15
2022-11-19T11:12:12.110Z,12.23
2022-11-19T11:16:18.998Z,11.20
2022-11-19T11:20:28.527Z,12.85
2022-11-19T11:24:35.154Z,12.70
2022-11-19T11:28:38.390Z,10.73
2022-11-19T11:32:42.745Z,12.85
2022-11-19T11:36:47.498Z,10.82
2022-11-19T11:41:20.734Z,13.80
2022-11-19T11:45:28.963Z,9.57
2022-11-19T11:49:35.636Z,11.85
2022-11-19T11:53:40.528Z,13.55
2022-11-19T11:57:54.732Z,11.02
2022-11-19T12:02:02.583Z,12.15
2022-11-19T12:06:14.014Z,10.60
2022-11-19T12:10:35.959Z,10.65
2022-11-19T12:14:47.532Z,11.40
2022-11-19T12:19:06.037Z,11.55
2022-11-19T12:23:23.987Z,10.55
2022-11-19T12:27:34.849Z,11.95
2022-11-19T12:31:55.736Z,12.93
2022-11-19T12:36:09.098Z,10.35
2022-11-19T12:40:29.072Z,11.82
2022-11-19T12:44:49.415Z,12.02
2022-11-19T12:49:12.783Z,11.18
2022-11-19T12:53:29.453Z,11.25
2022-11-19T12:57:43.894Z,9.20
2022-11-19T13:01:52.623Z,10.70
2022-11-19T13:05:59.896Z,12.00
2022-11-19T13:10:09.412Z,12.18
2022-11-19T13:14:18.409Z,11.52
2022-11-19T13:18:24.423Z,9.52
2022-11-19T13:22:35.442Z,10.15
2022-11-19T13:26:39.903Z,9.80
2022-11-19T13:30:47.982Z,9.30
2022-11-19T13:35:06.034Z,9.20
2022-11-19T13:39:16.362Z,10.88
2022-11-19T13:43:39.515Z,9.13
2022-11-19T13:47:50.421Z,10.75
2022-11-19T13:52:01.856Z,9.65
2022-11-19T13:56:05.915Z,9.85
2022-11-19T14:00:23.894Z,11.15
2022-11-19T14:04:47.082Z,9.00
2022-11-19T14:09:02.806Z,11.13
2022-11-19T14:13:24.011Z,12.70
2022-11-19T14:17:54.965Z,10.40
2022-11-19T14:22:17.844Z,9.45
2022-11-19T14:26:54.383Z,10.70
2022-11-19T14:31:08.453Z,11.57
2022-11-19T14:35:39.898Z,9.70
2022-11-19T14:39:47.070Z,10.63
2022-11-19T14:44:10.156Z,9.05
2022-11-19T14:48:15.143Z,10.30
2022-11-19T14:52:24.403Z,10.52
2022-11-19T14:56:28.937Z,9.32
2022-11-19T15:00:35.409Z,11.15
2022-11-19T15:04:44.425Z,9.88
2022-11-19T15:08:53.174Z,11.10
2022-11-19T15:13:23.516Z,9.48
2022-11-19T15:17:27.930Z,8.75
2022-11-19T15:22:08.592Z,9.13
2022-11-19T15:26:20.918Z,10.00
2022-11-19T15:30:34.071Z,11.85
2022-11-19T15:39:25.401Z,9.65
2022-11-19T15:43:34.513Z,10.65
2022-11-19T15:47:43.972Z,9.70
2022-11-19T15:52:01.636Z,11.50
2022-11-19T15:56:10.264Z,10.73
2022-11-19T16:00:19.864Z,8.95
2022-11-19T16:04:24.468Z,9.15
2022-11-19T16:08:28.651Z,10.57
2022-11-19T16:12:50.893Z,10.57
2022-11-19T16:17:12.068Z,11.13
2022-11-19T16:21:19.224Z,12.45
2022-11-19T16:25:29.344Z,10.48
2022-11-19T16:29:37.426Z,11.48
2022-11-19T16:33:42.462Z,8.93
2022-11-19T16:37:47.889Z,11.02
2022-11-19T16:42:14.125Z,9.93
2022-11-19T16:46:23.427Z,12.45
2022-11-19T16:50:32.218Z,12.80
2022-11-19T16:54:47.624Z,11.95
2022-11-19T16:58:55.139Z,11.93
2022-11-19T17:03:00.247Z,14.65
2022-11-19T17:07:03.523Z,12.02
2022-11-19T17:11:39.711Z,11.85
2022-11-19T17:15:44.510Z,10.00
2022-11-19T17:19:50.030Z,12.02
2022-11-19T17:23:53.394Z,11.70
2022-11-19T17:27:59.088Z,13.45
2022-11-19T17:32:05.549Z,12.43
2022-11-19T17:36:15.152Z,10.88
2022-11-19T17:40:18.405Z,12.52
2022-11-19T17:44:35.171Z,9.85
2022-11-19T17:48:40.826Z,13.60
2022-11-19T17:52:46.338Z,12.10
2022-11-19T17:56:50.023Z,12.02
2022-11-19T18:00:53.230Z,12.88
2022-11-19T18:04:56.771Z,13.25
2022-11-19T18:09:01.618Z,13.00
2022-11-19T18:13:05.167Z,9.85
2022-11-19T18:17:11.245Z,11.65
2022-11-19T18:21:15.801Z,11.57
2022-11-19T18:25:22.446Z,10.38
2022-11-19T18:29:25.986Z,12.05
2022-11-19T18:33:29.610Z,11.55
2022-11-19T18:37:32.837Z,10.35
2022-11-19T18:41:38.191Z,11.60
2022-11-19T18:45:41.951Z,12.60
2022-11-19T18:49:45.673Z,10.60
2022-11-19T18:53:49.533Z,12.10
2022-11-19T18:57:54.175Z,11.93
2022-11-19T19:01:58.352Z,13.43
2022-11-19T19:06:03.154Z,13.02
2022-11-19T19:10:07.415Z,12.30
2022-11-19T19:14:12.452Z,10.50
2022-11-19T19:18:15.720Z,13.85
2022-11-19T19:22:21.120Z,12.50
2022-11-19T19:26:25.808Z,11.75
2022-11-19T19:30:30.736Z,12.35
2022-11-19T19:34:34.200Z,13.93
2022-11-19T19:38:38.009Z,11.82
2022-11-19T19:42:41.677Z,12.45
2022-11-19T19:46:48.953Z,14.48
2022-11-19T19:50:53.013Z,14.13
2022-11-19T19:54:56.203Z,13.55
2022-11-19T19:59:00.891Z,15.35
2022-11-19T20:03:05.915Z,13.77
2022-11-19T20:07:10.138Z,11.45
2022-11-19T20:11:15.830Z,9.38
2022-11-19T20:15:19.521Z,13.73
2022-11-19T20:19:25.281Z,11.93
2022-11-19T20:23:29.623Z,14.40
2022-11-19T20:27:33.242Z,12.75
2022-11-19T20:31:37.374Z,12.25
2022-11-19T20:35:51.418Z,12.93
2022-11-19T20:39:55.047Z,13.88
2022-11-19T20:44:16.324Z,12.32
2022-11-19T20:48:20.014Z,13.25
2022-11-19T20:52:25.279Z,12.00
2022-11-19T20:56:28.354Z,12.73
2022-11-19T21:00:33.550Z,13.73
2022-11-19T21:04:38.614Z,13.85
2022-11-19T21:08:43.590Z,15.13
2022-11-19T21:13:00.903Z,13.25
2022-11-19T21:17:04.288Z,11.93
2022-11-19T21:21:09.012Z,11.10
2022-11-19T21:25:13.648Z,11.43
2022-11-19T21:29:17.621Z,13.68
2022-11-19T21:33:20.721Z,12.50
2022-11-19T21:37:24.257Z,14.15
2022-11-19T21:41:29.217Z,15.93
2022-11-19T21:45:32.903Z,14.68
2022-11-19T21:49:36.096Z,12.32
2022-11-19T21:53:39.578Z,14.40
2022-11-19T21:57:45.356Z,13.82
2022-11-19T22:01:54.400Z,12.80
2022-11-19T22:06:01.492Z,14.50
2022-11-19T22:10:05.794Z,14.60
2022-11-19T22:14:11.126Z,13.23
2022-11-19T22:18:14.690Z,12.80
2022-11-19T22:22:17.778Z,16.00
2022-11-19T22:26:21.391Z,13.90
2022-11-19T22:30:26.546Z,15.25
2022-11-19T22:34:30.091Z,14.18
2022-11-19T22:38:33.264Z,13.00
2022-11-19T22:42:36.757Z,11.85
2022-11-19T22:46:41.850Z,13.07
2022-11-19T22:50:45.167Z,13.57
2022-11-19T22:54:48.642Z,13.35
2022-11-19T22:58:53.169Z,15.13
2022-11-19T23:02:58.112Z,15.35
2022-11-19T23:07:01.616Z,15.60
2022-11-19T23:11:07.467Z,14.15
2022-11-19T23:15:11.483Z,12.13
2022-11-19T23:19:19.912Z,12.60
2022-11-19T23:23:23.950Z,14.18
2022-11-19T23:27:27.558Z,15.15
2022-11-19T23:31:32.740Z,14.10
2022-11-19T23:35:37.936Z,14.18
2022-11-19T23:39:41.415Z,16.42
2022-11-19T23:43:45.670Z,18.50
2022-11-19T23:47:48.687Z,14.20
2022-11-19T23:51:53.715Z,15.35
2022-11-19T23:55:57.219Z,16.15
